General Aviation Weather

Text Reports

Enter one or more of the following location identifiers separated by a space:

Zip Code, Four-Character ICAO or Three-Character IATA airport codes.

METAR - Aviation Routine Weather Report
KTBR - Statesboro, Georgia
Updated at 2:35 PM GMT on December 28, 2014 (9:35 AM EST):
METAR KTBR 281435Z AUTO 16003KT 10SM OVC007 15/15 A3015 RMK AO2 T01470147
TAF - Terminal Area Forecast
KTBR - Statesboro, Georgia
Updated at 2:35 PM GMT on December 28, 2014 (9:35 AM EST):
No TAF is currently available for this location.
Decoded:
No decoded TAF is available.
PIREP - Pilot Weather Report
KTBR - Statesboro, Georgia
Updated at 2:35 PM GMT on December 28, 2014 (9:35 AM EST):
No PIREP is currently available for this location.
AIRMET - Airmens Meteorological Information
KTBR - Statesboro, Georgia
Updated at 2:35 PM GMT on December 28, 2014 (9:35 AM EST):
No AIRMET is currently available for this location.
SIGMET - Significant Meteorological Information
KTBR - Statesboro, Georgia
Updated at 2:35 PM GMT on December 28, 2014 (9:35 AM EST):
No SIGMET is currently available for this location.
NOTAM - Notice to Airmen
KTBR - Statesboro, Georgia
Updated at 2:35 PM GMT on December 28, 2014 (9:35 AM EST):
No NOTAM is currently available for this location.
Forecast Area
KTBR - Statesboro, Georgia
Updated at 2:35 PM GMT on December 28, 2014 (9:35 AM EST):
No NOTAM is currently available for this location.
Aviation Weather Maps